Terminal Aerodrome Forecast
Issued by NWS Columbia, SC

Home | Current Version | Previous Version | Text Only | Print | Product List | Glossary On
Versions: 1 2 3 4 5 6 7 8 9 10 11 12 13 14 15 16 17 18 19 20 21 22 23 24 25 26 27
000
FTUS42 KCAE 180200 AAA
TAFCAE
TAF AMD
KCAE 180221Z 1802/1824 VRB05KT P6SM BKN150
     FM180600 04007KT P6SM SCT025 BKN040 BKN150
     FM181000 05007KT P6SM BKN025 OVC120
     FM181600 03009G15KT P6SM BKN035 OVC060
     FM181900 04010G16KT P6SM VCSH BKN025 OVC040
     FM182200 04009G15KT 5SM -SHRA BR BKN020 OVC040=

USA.gov is the U.S. government's official web portal to all federal, state and local government web resources and services.